Time;durP1;ratioP1;P1;durP2;ratioP2;P2;SDS_P1;SDS_P2;PMS_P1;PMS_P2;Temp;Humidity;BMP_temperature;BMP_pressure;BME280_temperature;BME280_humidity;BME280_pressure;Samples;Min_cycle;Max_cycle;Signal;HPM_P1;HPM_P2
2021/11/02 00:02:11;;;;;;;1999.90;999.90;;;12.50;99.90;;;;;;5072925;28;20615;-72
2021/11/02 00:04:38;;;;;;;1999.90;999.90;;;12.50;99.90;;;;;;5072720;28;20203;-72
2021/11/02 00:07:05;;;;;;;1999.90;999.90;;;12.50;99.90;;;;;;5072681;28;20180;-74
2021/11/02 00:09:35;;;;;;;1999.90;999.90;;;12.40;99.90;;;;;;5072736;28;20306;-73
2021/11/02 00:12:02;;;;;;;1999.90;999.90;;;12.40;99.90;;;;;;5072616;28;20221;-73
2021/11/02 00:14:30;;;;;;;1999.90;999.90;;;12.40;99.90;;;;;;5072351;28;20216;-73
2021/11/02 00:17:03;;;;;;;1999.90;999.90;;;12.30;99.90;;;;;;5072669;28;20165;-73
2021/11/02 00:19:30;;;;;;;1999.90;999.90;;;12.30;99.90;;;;;;5072628;28;20191;-73
2021/11/02 00:22:05;;;;;;;1999.90;999.90;;;12.20;99.90;;;;;;5071229;28;20180;-73
2021/11/02 00:27:02;;;;;;;1999.90;999.90;;;12.20;99.90;;;;;;5072369;28;20175;-73
2021/11/02 00:29:29;;;;;;;1999.90;999.90;;;12.20;99.90;;;;;;5072419;28;20594;-73
2021/11/02 00:31:56;;;;;;;1999.90;999.90;;;12.20;99.90;;;;;;5072353;28;20175;-73
2021/11/02 00:34:22;;;;;;;1999.90;999.90;;;12.20;99.90;;;;;;5072349;28;20634;-72
2021/11/02 00:36:49;;;;;;;1999.90;999.90;;;12.20;99.90;;;;;;5072327;28;20582;-71
2021/11/02 00:39:16;;;;;;;1999.90;999.90;;;12.20;99.90;;;;;;5072437;28;20203;-73
2021/11/02 00:41:43;;;;;;;1999.90;999.90;;;12.20;99.90;;;;;;5072704;28;20222;-73
2021/11/02 00:44:10;;;;;;;1999.90;999.90;;;12.30;99.90;;;;;;5075551;28;20646;-72
2021/11/02 00:46:37;;;;;;;1999.90;999.90;;;12.30;99.90;;;;;;5074759;28;20183;-73
2021/11/02 00:49:07;;;;;;;1999.90;999.90;;;12.30;99.90;;;;;;5076166;28;20585;-73
2021/11/02 00:51:34;;;;;;;1999.90;999.90;;;12.30;99.90;;;;;;5076013;28;20652;-72
2021/11/02 00:54:01;;;;;;;1999.90;999.90;;;12.30;99.90;;;;;;5075758;28;20169;-73
2021/11/02 00:56:28;;;;;;;1999.90;999.90;;;12.30;99.90;;;;;;5075619;28;20169;-72
2021/11/02 00:58:54;;;;;;;1999.90;999.90;;;12.40;99.90;;;;;;5075490;28;20555;-74
2021/11/02 01:01:21;;;;;;;1999.90;999.90;;;12.40;99.90;;;;;;5075579;28;20169;-73
2021/11/02 01:03:48;;;;;;;1999.90;999.90;;;12.50;99.90;;;;;;5075611;28;20172;-74
2021/11/02 01:06:15;;;;;;;1999.90;999.90;;;12.50;99.90;;;;;;5075567;28;20200;-74
2021/11/02 01:08:42;;;;;;;1999.90;999.90;;;12.50;99.90;;;;;;5075449;28;20168;-73
2021/11/02 01:11:09;;;;;;;1999.90;999.90;;;12.50;99.90;;;;;;5075565;28;20169;-74
2021/11/02 01:13:36;;;;;;;1999.90;999.90;;;12.50;99.90;;;;;;5075527;28;20173;-74
2021/11/02 01:16:03;;;;;;;1999.90;999.90;;;12.50;99.90;;;;;;5075320;28;20225;-73
2021/11/02 01:18:30;;;;;;;1999.90;999.90;;;12.60;99.90;;;;;;5075400;28;20200;-74
2021/11/02 01:20:58;;;;;;;1999.90;999.90;;;12.60;99.90;;;;;;5075337;28;20168;-72
2021/11/02 01:23:24;;;;;;;1999.90;999.90;;;12.50;99.90;;;;;;5075229;28;20180;-72
2021/11/02 01:25:51;;;;;;;1999.90;999.90;;;12.60;99.90;;;;;;5075459;28;20169;-72
2021/11/02 01:28:18;;;;;;;1999.90;999.90;;;12.60;99.90;;;;;;5075333;28;20168;-72
2021/11/02 01:30:45;;;;;;;1999.90;999.90;;;12.60;99.90;;;;;;5075561;28;20164;-72
2021/11/02 01:33:12;;;;;;;1999.90;999.90;;;12.60;99.90;;;;;;5075177;28;20180;-73
2021/11/02 01:35:39;;;;;;;1999.90;999.90;;;12.60;99.90;;;;;;5075141;28;20167;-72
2021/11/02 01:38:06;;;;;;;1999.90;999.90;;;12.60;99.90;;;;;;5075050;28;20201;-72
2021/11/02 01:40:34;;;;;;;1999.90;999.90;;;12.60;99.90;;;;;;5075273;28;20192;-71
2021/11/02 01:43:01;;;;;;;1999.90;999.90;;;12.50;99.90;;;;;;5075235;28;20172;-72
2021/11/02 01:45:28;;;;;;;1999.90;999.90;;;12.60;99.90;;;;;;5074983;28;20669;-72
2021/11/02 01:47:55;;;;;;;1999.90;999.90;;;12.60;99.90;;;;;;5074907;28;20633;-72
2021/11/02 01:50:23;;;;;;;1999.90;999.90;;;12.70;99.90;;;;;;5074942;28;20169;-73
2021/11/02 01:52:50;;;;;;;1999.90;999.90;;;12.60;99.90;;;;;;5075038;28;20635;-73
2021/11/02 01:55:17;;;;;;;1999.90;999.90;;;12.60;99.90;;;;;;5074102;28;20179;-73
2021/11/02 01:57:46;;;;;;;1999.90;999.90;;;12.60;99.90;;;;;;5074609;28;20200;-72
2021/11/02 02:00:16;;;;;;;1999.90;999.90;;;12.60;99.90;;;;;;5074666;28;20180;-74
2021/11/02 02:03:20;;;;;;;1999.90;999.90;;;12.70;99.90;;;;;;5074719;28;20720;-73
2021/11/02 02:05:51;;;;;;;1999.90;999.90;;;12.60;99.90;;;;;;5051775;28;20187;-73
2021/11/02 02:08:38;;;;;;;1999.90;999.90;;;12.60;99.90;;;;;;5074567;28;20157;-74
2021/11/02 02:11:13;;;;;;;1999.90;999.90;;;12.60;99.90;;;;;;5074481;28;20157;-73
2021/11/02 02:14:15;;;;;;;1999.90;999.90;;;12.60;99.90;;;;;;5074564;28;20169;-75
2021/11/02 02:16:47;;;;;;;1999.90;999.90;;;12.60;99.90;;;;;;5074495;28;20164;-73
2021/11/02 02:19:45;;;;;;;1999.90;999.90;;;12.60;99.90;;;;;;5074343;28;20176;-74
2021/11/02 02:22:36;;;;;;;1999.90;999.90;;;12.60;99.90;;;;;;5074195;28;20160;-74
2021/11/02 02:25:30;;;;;;;1999.90;999.90;;;12.60;99.90;;;;;;5074146;28;20161;-73
2021/11/02 02:28:18;;;;;;;1999.90;999.90;;;12.60;99.90;;;;;;5074288;28;20619;-74
2021/11/02 02:31:06;;;;;;;1999.90;999.90;;;12.50;99.90;;;;;;5074025;28;20155;-73
2021/11/02 02:33:39;;;;;;;1999.90;999.90;;;12.50;99.90;;;;;;5074039;28;20161;-73
2021/11/02 02:36:06;;;;;;;1999.90;999.90;;;12.50;99.90;;;;;;5074272;28;20171;-76
2021/11/02 02:38:36;;;;;;;1999.90;999.90;;;12.50;99.90;;;;;;5072587;28;20210;-74
2021/11/02 02:41:04;;;;;;;1999.90;999.90;;;12.50;99.90;;;;;;5073849;28;20247;-74
2021/11/02 02:43:35;;;;;;;1999.90;999.90;;;12.40;99.90;;;;;;5072514;28;20238;-75
2021/11/02 02:46:02;;;;;;;1999.90;999.90;;;12.40;99.90;;;;;;5073820;28;20149;-73
2021/11/02 02:48:31;;;;;;;1999.90;999.90;;;12.40;99.90;;;;;;5073766;28;20210;-73
2021/11/02 02:50:58;;;;;;;1999.90;999.90;;;12.30;99.90;;;;;;5073763;28;20572;-74
2021/11/02 02:53:26;;;;;;;1999.90;999.90;;;12.30;99.90;;;;;;5073688;28;20528;-75
2021/11/02 02:55:54;;;;;;;1999.90;999.90;;;12.30;99.90;;;;;;5073603;28;20595;-74
2021/11/02 02:58:23;;;;;;;1999.90;999.90;;;12.30;99.90;;;;;;5073504;28;20196;-73
2021/11/02 03:00:50;;;;;;;1999.90;999.90;;;12.30;99.90;;;;;;5073473;28;20196;-74
2021/11/02 03:03:18;;;;;;;1999.90;999.90;;;12.30;99.90;;;;;;5073448;28;20168;-74
2021/11/02 03:05:45;;;;;;;1999.90;999.90;;;12.20;99.90;;;;;;5073284;28;20255;-74
2021/11/02 03:08:12;;;;;;;1999.90;999.90;;;12.20;99.90;;;;;;5073271;28;20226;-75
2021/11/02 03:10:41;;;;;;;1999.90;999.90;;;12.20;99.90;;;;;;5073261;28;20169;-75
2021/11/02 03:13:12;;;;;;;1999.90;999.90;;;12.20;99.90;;;;;;5073315;28;20179;-75
2021/11/02 03:15:56;;;;;;;1999.90;999.90;;;12.10;99.90;;;;;;5073209;28;20216;-75
2021/11/02 03:44:04;;;;;;;1999.90;999.90;;;12.20;99.90;;;;;;5073001;28;20170;-75
2021/11/02 03:49:41;;;;;;;1999.90;999.90;;;12.20;99.90;;;;;;5072812;28;20250;-75
2021/11/02 03:55:07;;;;;;;1999.90;999.90;;;12.10;99.90;;;;;;5072900;28;20187;-74
2021/11/02 04:00:29;;;;;;;1999.90;999.90;;;12.00;99.90;;;;;;5072892;28;20238;-75
2021/11/02 04:26:04;;;;;;;1999.90;999.90;;;12.00;99.90;;;;;;5076491;28;20164;-74
2021/11/02 05:48:00;;;;;;;1999.90;999.90;;;14.00;99.90;;;;;;5074516;28;20186;-72
2021/11/02 05:55:57;;;;;;;1999.90;999.90;;;14.30;99.90;;;;;;5073958;28;20256;-70
2021/11/02 06:09:16;;;;;;;1999.90;999.90;;;14.30;99.90;;;;;;5057267;28;20184;-68
2021/11/02 06:29:24;;;;;;;1999.90;999.90;;;15.90;99.90;;;;;;5073524;28;20528;-68
2021/11/02 06:31:55;;;;;;;1999.90;999.90;;;16.80;99.90;;;;;;5073218;28;20160;-68
2021/11/02 06:34:48;;;;;;;1999.90;999.90;;;17.30;99.90;;;;;;5072263;28;20164;-75
2021/11/02 06:45:59;;;;;;;1999.90;999.90;;;16.60;99.90;;;;;;5073774;28;20171;-70
2021/11/02 06:57:18;;;;;;;1999.90;999.90;;;16.60;99.90;;;;;;5072873;28;20160;-67
2021/11/02 07:28:30;;;;;;;1999.90;999.90;;;18.90;99.80;;;;;;5072426;28;20235;-67
2021/11/02 08:48:01;;;;;;;1999.90;999.90;;;18.30;86.90;;;;;;5068552;28;20402;-65
2021/11/02 08:50:20;;;;;;;1999.90;999.90;;;18.40;83.00;;;;;;5067472;28;20192;-67
2021/11/02 08:52:52;;;;;;;1999.90;999.90;;;18.40;82.30;;;;;;5071642;28;20187;-67
2021/11/02 08:55:20;;;;;;;1999.90;999.90;;;18.40;84.50;;;;;;5070171;28;20161;-65
2021/11/02 08:57:52;;;;;;;1999.90;999.90;;;18.50;73.20;;;;;;5071040;28;20599;-65
2021/11/02 09:00:20;;;;;;;1999.90;999.90;;;18.50;80.20;;;;;;5071079;28;20164;-69
2021/11/02 09:02:53;;;;;;;1999.90;999.90;;;18.70;81.70;;;;;;5071098;28;20176;-68
2021/11/02 09:05:34;;;;;;;1999.90;999.90;;;18.90;70.60;;;;;;5074897;28;20182;-71
2021/11/02 09:08:04;;;;;;;1999.90;999.90;;;19.00;68.00;;;;;;5075272;28;20189;-72
2021/11/02 09:10:31;;;;;;;1999.90;999.90;;;19.00;66.90;;;;;;5074857;28;20575;-72
2021/11/02 09:12:59;;;;;;;1999.90;999.90;;;18.80;70.30;;;;;;5074898;28;20164;-72
2021/11/02 09:15:27;;;;;;;1999.90;999.90;;;18.60;72.20;;;;;;5074936;28;20244;-72
2021/11/02 09:17:57;;;;;;;1999.90;999.90;;;18.90;78.10;;;;;;5074564;28;20682;-69
2021/11/02 09:20:25;;;;;;;1999.90;999.90;;;19.40;76.00;;;;;;5073897;28;20402;-70
2021/11/02 09:22:53;;;;;;;1999.90;999.90;;;20.20;72.10;;;;;;5074447;28;20249;-72
2021/11/02 09:25:22;;;;;;;1999.90;999.90;;;21.30;67.40;;;;;;5075205;28;20595;-74
2021/11/02 09:27:49;;;;;;;1999.90;999.90;;;21.90;61.40;;;;;;5075086;28;20273;-72
2021/11/02 09:30:18;;;;;;;1999.90;999.90;;;22.00;60.80;;;;;;5074812;28;20165;-72
2021/11/02 09:32:51;;;;;;;1999.90;999.90;;;21.60;57.80;;;;;;5074078;28;20172;-74
2021/11/02 09:35:20;;;;;;;1999.90;999.90;;;20.80;60.00;;;;;;5073953;28;20145;-71
2021/11/02 09:38:00;;;;;;;1999.90;999.90;;;20.70;61.60;;;;;;5074024;28;20279;-65
2021/11/02 09:40:29;;;;;;;1999.90;999.90;;;20.50;62.20;;;;;;5074223;28;20164;-69
2021/11/02 09:43:11;;;;;;;1999.90;999.90;;;20.60;65.80;;;;;;5073947;28;20165;-74
2021/11/02 09:46:15;;;;;;;1999.90;999.90;;;20.60;58.40;;;;;;5074034;28;20168;-68
2021/11/02 09:49:06;;;;;;;1999.90;999.90;;;20.20;61.50;;;;;;5074171;28;20225;-67
2021/11/02 09:51:58;;;;;;;1999.90;999.90;;;20.10;61.50;;;;;;5074265;28;20157;-66
2021/11/02 09:55:23;;;;;;;1999.90;999.90;;;20.50;64.50;;;;;;5073592;28;20175;-67
2021/11/02 09:58:16;;;;;;;1999.90;999.90;;;21.30;62.80;;;;;;5020122;28;20273;-67
2021/11/02 10:00:51;;;;;;;1999.90;999.90;;;22.20;58.40;;;;;;5073706;28;20161;-68
2021/11/02 10:03:43;;;;;;;1999.90;999.90;;;22.90;56.80;;;;;;5073502;28;20168;-72
2021/11/02 10:06:20;;;;;;;1999.90;999.90;;;22.20;53.40;;;;;;5072057;28;20168;-70
2021/11/02 10:08:56;;;;;;;1999.90;999.90;;;22.80;51.80;;;;;;5074076;28;20243;-69
2021/11/02 10:11:44;;;;;;;1999.90;999.90;;;23.20;53.20;;;;;;5074082;28;20160;-71
2021/11/02 10:14:26;;;;;;;1999.90;999.90;;;24.50;52.70;;;;;;5073699;28;20213;-64
2021/11/02 10:17:24;;;;;;;1999.90;999.90;;;24.50;51.00;;;;;;5071469;28;20392;-72
2021/11/02 10:20:08;;;;;;;1999.90;999.90;;;24.00;49.20;;;;;;5073440;28;20168;-64
2021/11/02 10:23:09;;;;;;;1999.90;999.90;;;23.40;51.90;;;;;;5073759;28;20222;-60
2021/11/02 10:26:00;;;;;;;1999.90;999.90;;;23.00;52.20;;;;;;5073391;28;20157;-64
2021/11/02 10:28:49;;;;;;;1999.90;999.90;;;22.60;54.20;;;;;;5073479;28;20222;-62
2021/11/02 10:31:36;;;;;;;1999.90;999.90;;;22.60;55.30;;;;;;5072995;28;20587;-65
2021/11/02 10:34:33;;;;;;;1999.90;999.90;;;22.10;52.90;;;;;;5066017;28;20196;-62
2021/11/02 10:37:24;;;;;;;1999.90;999.90;;;22.00;55.00;;;;;;5073267;28;20156;-64
2021/11/02 10:40:14;;;;;;;1999.90;999.90;;;21.90;54.60;;;;;;5072797;28;20211;-73
2021/11/02 10:43:13;;;;;;;1999.90;999.90;;;22.10;52.30;;;;;;5073099;28;20196;-65
2021/11/02 10:45:54;;;;;;;1999.90;999.90;;;22.00;54.50;;;;;;5073044;28;20167;-71
2021/11/02 10:48:44;;;;;;;1999.90;999.90;;;22.00;55.60;;;;;;5073224;28;20163;-63
2021/11/02 10:51:30;;;;;;;1999.90;999.90;;;22.10;54.90;;;;;;5071623;28;20404;-64
2021/11/02 10:54:06;;;;;;;1999.90;999.90;;;21.80;52.50;;;;;;5073004;28;20204;-66
2021/11/02 10:57:11;;;;;;;1999.90;999.90;;;21.30;52.50;;;;;;5072740;28;20678;-70
2021/11/02 10:59:43;;;;;;;1999.90;999.90;;;21.40;55.60;;;;;;5048697;28;20191;-61
2021/11/02 11:02:28;;;;;;;1999.90;999.90;;;21.60;54.80;;;;;;5072986;28;20243;-66
2021/11/02 11:05:00;;;;;;;1999.90;999.90;;;22.20;53.80;;;;;;5071257;28;20244;-67
2021/11/02 11:07:28;;;;;;;1999.90;999.90;;;22.60;51.00;;;;;;5072644;28;20191;-66
2021/11/02 11:09:56;;;;;;;1999.90;999.90;;;22.60;50.30;;;;;;5072636;28;20260;-65
2021/11/02 11:12:26;;;;;;;1999.90;999.90;;;22.70;49.00;;;;;;5072708;28;20225;-64
2021/11/02 11:14:54;;;;;;;1999.90;999.90;;;22.80;52.00;;;;;;5072542;28;20212;-69
2021/11/02 11:17:28;;;;;;;1999.90;999.90;;;22.70;52.80;;;;;;5072259;28;20213;-62
2021/11/02 11:20:09;;;;;;;1999.90;999.90;;;22.00;50.20;;;;;;5070558;28;20549;-62
2021/11/02 11:22:44;;;;;;;1999.90;999.90;;;22.70;50.40;;;;;;5072286;28;20164;-67
2021/11/02 11:25:14;;;;;;;1999.90;999.90;;;22.70;53.50;;;;;;5072372;28;20164;-68
2021/11/02 11:27:55;;;;;;;1999.90;999.90;;;23.10;51.30;;;;;;5072530;28;20182;-70
2021/11/02 11:30:28;;;;;;;1999.90;999.90;;;22.90;49.10;;;;;;5072476;28;20199;-67
2021/11/02 11:32:56;;;;;;;1999.90;999.90;;;23.10;50.80;;;;;;5070398;28;20234;-73
2021/11/02 11:35:23;;;;;;;1999.90;999.90;;;23.10;51.50;;;;;;5070692;28;20176;-70
2021/11/02 11:37:52;;;;;;;1999.90;999.90;;;23.20;50.50;;;;;;5070540;28;20204;-69
2021/11/02 11:40:22;;;;;;;1999.90;999.90;;;23.00;49.40;;;;;;5072417;28;20254;-69
2021/11/02 11:42:56;;;;;;;1999.90;999.90;;;22.90;51.20;;;;;;5072757;28;20169;-70
2021/11/02 11:45:31;;;;;;;1999.90;999.90;;;23.30;52.10;;;;;;5072469;28;20168;-71
2021/11/02 11:48:26;;;;;;;1999.90;999.90;;;23.70;50.40;;;;;;5071271;28;20237;-75
2021/11/02 11:50:59;;;;;;;1999.90;999.90;;;23.60;47.60;;;;;;5072503;28;20161;-66
2021/11/02 11:53:27;;;;;;;1999.90;999.90;;;23.60;47.60;;;;;;5072353;28;20611;-66
2021/11/02 11:56:09;;;;;;;1999.90;999.90;;;23.40;48.80;;;;;;5072437;28;20173;-60
2021/11/02 11:58:54;;;;;;;1999.90;999.90;;;23.10;49.10;;;;;;5071655;28;20673;-61
2021/11/02 12:01:31;;;;;;;1999.90;999.90;;;22.70;50.40;;;;;;5071927;28;20160;-65
2021/11/02 12:04:04;;;;;;;1999.90;999.90;;;22.40;52.80;;;;;;5072326;28;20165;-64
2021/11/02 12:06:37;;;;;;;1999.90;999.90;;;22.10;51.80;;;;;;5072510;28;20202;-70
2021/11/02 12:09:16;;;;;;;1999.90;999.90;;;22.30;52.50;;;;;;5072310;28;20163;-70
2021/11/02 12:11:47;;;;;;;1999.90;999.90;;;22.30;50.70;;;;;;5072291;28;20520;-69
2021/11/02 12:14:20;;;;;;;1999.90;999.90;;;22.50;51.90;;;;;;5071744;28;20211;-70
2021/11/02 12:16:50;;;;;;;1999.90;999.90;;;22.60;52.70;;;;;;5072266;28;20542;-70
2021/11/02 12:19:38;;;;;;;1999.90;999.90;;;23.00;49.50;;;;;;5072024;28;20204;-69
2021/11/02 12:22:14;;;;;;;1999.90;999.90;;;23.10;48.70;;;;;;5072145;28;20149;-71
2021/11/02 12:24:44;;;;;;;1999.90;999.90;;;23.20;49.50;;;;;;5071618;28;20506;-71
2021/11/02 12:27:14;;;;;;;1999.90;999.90;;;23.40;49.10;;;;;;5071418;28;20167;-72
2021/11/02 12:29:42;;;;;;;1999.90;999.90;;;23.80;49.20;;;;;;5071903;28;20243;-70
2021/11/02 12:32:11;;;;;;;1999.90;999.90;;;23.70;47.00;;;;;;5071655;28;20168;-71
2021/11/02 12:34:57;;;;;;;1999.90;999.90;;;23.90;46.80;;;;;;5071836;28;20176;-72
2021/11/02 12:37:25;;;;;;;1999.90;999.90;;;24.10;46.20;;;;;;5071948;28;20206;-64
2021/11/02 12:39:52;;;;;;;1999.90;999.90;;;23.90;44.90;;;;;;5074465;28;20172;-67
2021/11/02 12:42:32;;;;;;;1999.90;999.90;;;23.80;45.70;;;;;;5075797;28;20651;-66
2021/11/02 12:45:00;;;;;;;1999.90;999.90;;;23.60;45.90;;;;;;5075228;28;20244;-65
2021/11/02 12:47:30;;;;;;;1999.90;999.90;;;23.40;46.00;;;;;;5075295;28;20214;-66
2021/11/02 12:49:59;;;;;;;1999.90;999.90;;;23.40;44.70;;;;;;5075598;28;20233;-66
2021/11/02 12:52:30;;;;;;;1999.90;999.90;;;23.40;46.20;;;;;;5075439;28;20247;-65
2021/11/02 12:55:04;;;;;;;1999.90;999.90;;;23.40;45.30;;;;;;5075164;28;20203;-66
2021/11/02 12:57:42;;;;;;;1999.90;999.90;;;23.80;45.50;;;;;;5074837;28;20645;-66
2021/11/02 13:00:14;;;;;;;1999.90;999.90;;;23.90;45.90;;;;;;5075017;28;20161;-66
2021/11/02 13:02:43;;;;;;;1999.90;999.90;;;24.30;47.00;;;;;;5074816;28;20168;-67
2021/11/02 13:05:22;;;;;;;1999.90;999.90;;;24.40;44.70;;;;;;5074939;28;20168;-66
2021/11/02 13:08:09;;;;;;;1999.90;999.90;;;24.40;44.20;;;;;;5074556;28;20203;-66
2021/11/02 13:10:37;;;;;;;1999.90;999.90;;;24.00;44.60;;;;;;5074264;28;20215;-66
2021/11/02 13:13:08;;;;;;;1999.90;999.90;;;23.50;45.20;;;;;;5074749;28;20168;-66
2021/11/02 13:15:55;;;;;;;1999.90;999.90;;;23.10;47.60;;;;;;5074824;28;20236;-69
2021/11/02 13:18:40;;;;;;;1999.90;999.90;;;23.20;46.20;;;;;;5074700;28;20655;-67
2021/11/02 13:21:19;;;;;;;1999.90;999.90;;;23.50;46.00;;;;;;5074655;28;20172;-66
2021/11/02 13:23:49;;;;;;;1999.90;999.90;;;23.60;45.90;;;;;;5075148;28;20160;-67
2021/11/02 13:26:19;;;;;;;1999.90;999.90;;;23.70;46.40;;;;;;5074947;28;20640;-66
2021/11/02 13:28:46;;;;;;;1999.90;999.90;;;23.90;46.30;;;;;;5074682;28;20186;-64
2021/11/02 13:31:36;;;;;;;1999.90;999.90;;;24.00;44.70;;;;;;5074133;28;20516;-65
2021/11/02 13:34:06;;;;;;;1999.90;999.90;;;24.10;45.10;;;;;;5075050;28;20157;-67
2021/11/02 13:36:33;;;;;;;1999.90;999.90;;;24.00;44.30;;;;;;5074165;28;20172;-66
2021/11/02 13:39:11;;;;;;;1999.90;999.90;;;23.70;44.10;;;;;;5074090;28;20204;-66
2021/11/02 13:41:57;;;;;;;1999.90;999.90;;;23.60;43.70;;;;;;5074735;28;20254;-66
2021/11/02 13:44:24;;;;;;;1999.90;999.90;;;23.50;44.60;;;;;;5075067;28;20157;-66
2021/11/02 13:46:54;;;;;;;1999.90;999.90;;;23.60;45.30;;;;;;5074901;28;20168;-65
2021/11/02 13:49:22;;;;;;;1999.90;999.90;;;23.60;43.40;;;;;;5074470;28;20299;-65
2021/11/02 13:51:51;;;;;;;1999.90;999.90;;;23.50;44.10;;;;;;5073568;28;20175;-66
2021/11/02 13:54:19;;;;;;;1999.90;999.90;;;23.60;45.00;;;;;;5074188;28;20606;-67
2021/11/02 13:56:47;;;;;;;1999.90;999.90;;;23.80;45.50;;;;;;5074053;28;20622;-71
2021/11/02 13:59:15;;;;;;;1999.90;999.90;;;23.90;45.10;;;;;;5074547;28;20201;-66
2021/11/02 14:13:48;;;;;;;1999.90;999.90;;;23.50;44.40;;;;;;5110445;27;20506;-67
2021/11/02 14:16:27;;;;;;;1999.90;999.90;;;22.90;45.60;;;;;;5110486;28;20171;-65
2021/11/02 14:18:54;;;;;;;1999.90;999.90;;;23.00;45.60;;;;;;5109184;28;20528;-65
2021/11/02 14:21:48;;;;;;;1999.90;999.90;;;23.10;45.60;;;;;;5110369;28;20551;-66
2021/11/02 14:24:28;;;;;;;1999.90;999.90;;;23.20;44.90;;;;;;5110407;28;20194;-67
2021/11/02 14:26:55;;;;;;;1999.90;999.90;;;23.00;44.40;;;;;;5110326;28;20613;-65
2021/11/02 14:29:52;;;;;;;1999.90;999.90;;;23.00;46.00;;;;;;5110470;28;20170;-66
2021/11/02 14:32:37;;;;;;;1999.90;999.90;;;23.00;46.40;;;;;;5110353;28;20172;-65
2021/11/02 14:35:12;;;;;;;1999.90;999.90;;;23.10;45.60;;;;;;5110241;28;20167;-66
2021/11/02 14:37:52;;;;;;;1999.90;999.90;;;23.10;46.50;;;;;;5110254;28;20696;-65
2021/11/02 14:40:34;;;;;;;1999.90;999.90;;;23.00;46.90;;;;;;5110201;28;20186;-67
2021/11/02 14:43:23;;;;;;;1999.90;999.90;;;23.10;46.40;;;;;;5109956;28;20329;-67
2021/11/02 14:46:19;;;;;;;1999.90;999.90;;;23.10;46.20;;;;;;5109934;28;20159;-65
2021/11/02 14:48:50;;;;;;;1999.90;999.90;;;23.10;47.30;;;;;;5110011;28;20689;-66
2021/11/02 14:51:25;;;;;;;1999.90;999.90;;;23.00;45.70;;;;;;5109945;28;20192;-64
2021/11/02 14:53:54;;;;;;;1999.90;999.90;;;22.70;46.20;;;;;;5109876;28;20212;-66
2021/11/02 14:56:34;;;;;;;1999.90;999.90;;;22.40;46.60;;;;;;5109723;28;20183;-65
2021/11/02 14:59:07;;;;;;;1999.90;999.90;;;22.30;48.20;;;;;;5110078;28;20155;-67
2021/11/02 15:01:58;;;;;;;1999.90;999.90;;;22.30;48.00;;;;;;5109531;28;20580;-65
2021/11/02 15:04:30;;;;;;;1999.90;999.90;;;22.30;46.90;;;;;;5109726;28;20159;-66
2021/11/02 15:07:00;;;;;;;1999.90;999.90;;;22.40;47.90;;;;;;5109629;28;20168;-66
2021/11/02 15:09:38;;;;;;;1999.90;999.90;;;22.20;46.60;;;;;;5109743;28;20229;-65
2021/11/02 15:12:07;;;;;;;1999.90;999.90;;;21.90;46.70;;;;;;5107137;28;20207;-65
2021/11/02 15:14:41;;;;;;;1999.90;999.90;;;21.90;48.90;;;;;;5096595;28;20172;-66
2021/11/02 15:17:29;;;;;;;1999.90;999.90;;;21.90;47.10;;;;;;5095812;28;20168;-65
2021/11/02 15:19:56;;;;;;;1999.90;999.90;;;21.90;47.50;;;;;;5095606;28;20170;-66
2021/11/02 15:22:26;;;;;;;1999.90;999.90;;;21.80;47.10;;;;;;5095426;28;20230;-64
2021/11/02 15:25:07;;;;;;;1999.90;999.90;;;21.70;47.70;;;;;;5095479;28;20201;-66
2021/11/02 15:27:37;;;;;;;1999.90;999.90;;;21.70;47.80;;;;;;5095644;28;20156;-65
2021/11/02 15:30:14;;;;;;;1999.90;999.90;;;21.60;48.10;;;;;;5095420;28;20638;-66
2021/11/02 15:32:46;;;;;;;1999.90;999.90;;;21.50;48.60;;;;;;5095437;28;20155;-65
2021/11/02 15:35:18;;;;;;;1999.90;999.90;;;21.40;49.20;;;;;;5095458;28;20157;-66
2021/11/02 15:37:51;;;;;;;1999.90;999.90;;;21.30;49.70;;;;;;5095141;28;20148;-66
2021/11/02 15:40:20;;;;;;;1999.90;999.90;;;21.20;50.30;;;;;;5095373;28;20157;-66
2021/11/02 15:42:56;;;;;;;1999.90;999.90;;;21.20;50.70;;;;;;5095145;28;20233;-66
2021/11/02 15:45:35;;;;;;;1999.90;999.90;;;21.10;50.80;;;;;;5095286;28;20155;-67
2021/11/02 15:48:10;;;;;;;1999.90;999.90;;;20.90;50.70;;;;;;5095256;28;20158;-67
2021/11/02 15:50:42;;;;;;;1999.90;999.90;;;20.80;51.00;;;;;;5095197;28;20162;-68
2021/11/02 15:53:10;;;;;;;1999.90;999.90;;;20.60;50.70;;;;;;5094950;28;20221;-67
2021/11/02 15:55:38;;;;;;;1999.90;999.90;;;20.40;51.20;;;;;;5094763;28;20186;-66
2021/11/02 15:58:08;;;;;;;1999.90;999.90;;;20.30;51.70;;;;;;5094769;28;20163;-67
2021/11/02 16:00:43;;;;;;;1999.90;999.90;;;20.20;52.60;;;;;;5094847;28;20190;-66
2021/11/02 16:15:59;;;;;;;1999.90;999.90;;;20.00;52.50;;;;;;5131021;27;21023;-70
2021/11/02 16:18:32;;;;;;;1999.90;999.90;;;19.50;56.80;;;;;;5130881;28;20194;-69
2021/11/02 16:21:04;;;;;;;1999.90;999.90;;;19.40;57.10;;;;;;5131095;28;20173;-67
2021/11/02 16:23:44;;;;;;;1999.90;999.90;;;19.20;57.30;;;;;;5130826;28;20273;-71
2021/11/02 16:26:15;;;;;;;1999.90;999.90;;;19.00;58.40;;;;;;5130665;28;20176;-68
2021/11/02 16:28:43;;;;;;;1999.90;999.90;;;19.00;59.10;;;;;;5130660;28;20208;-68
2021/11/02 16:31:20;;;;;;;1999.90;999.90;;;18.90;59.30;;;;;;5130789;28;20173;-66
2021/11/02 16:33:47;;;;;;;1999.90;999.90;;;18.70;59.90;;;;;;5130545;28;20708;-72
2021/11/02 16:36:23;;;;;;;1999.90;999.90;;;18.60;61.20;;;;;;5130533;28;20173;-71
2021/11/02 16:38:52;;;;;;;1999.90;999.90;;;18.40;63.10;;;;;;5130529;28;20503;-69
2021/11/02 16:41:24;;;;;;;1999.90;999.90;;;18.30;63.50;;;;;;5130487;28;20659;-72
2021/11/02 16:44:26;;;;;;;1999.90;999.90;;;18.20;65.10;;;;;;5130406;28;20204;-67
2021/11/02 16:47:03;;;;;;;1999.90;999.90;;;18.10;67.40;;;;;;5127038;28;20265;-70
2021/11/02 16:49:30;;;;;;;1999.90;999.90;;;17.90;70.90;;;;;;5130270;28;20237;-71
2021/11/02 16:52:07;;;;;;;1999.90;999.90;;;17.80;77.00;;;;;;5130309;28;20159;-69
2021/11/02 16:54:45;;;;;;;1999.90;999.90;;;17.60;85.60;;;;;;5130113;28;20158;-65
2021/11/02 16:57:24;;;;;;;1999.90;999.90;;;17.50;92.80;;;;;;5130189;28;20175;-68
2021/11/02 17:00:03;;;;;;;1999.90;999.90;;;17.40;95.30;;;;;;5130140;28;20186;-66
2021/11/02 17:02:35;;;;;;;1999.90;999.90;;;17.20;98.70;;;;;;5130074;28;20510;-70
2021/11/02 17:05:21;;;;;;;1999.90;999.90;;;17.10;99.90;;;;;;5129875;28;20226;-70
2021/11/02 17:07:54;;;;;;;1999.90;999.90;;;17.00;99.90;;;;;;5130068;28;20167;-69
2021/11/02 17:10:27;;;;;;;1999.90;999.90;;;16.90;99.90;;;;;;5129870;28;20155;-68
2021/11/02 17:13:19;;;;;;;1999.90;999.90;;;16.80;99.90;;;;;;5130031;28;20147;-70
2021/11/02 17:16:00;;;;;;;1999.90;999.90;;;16.80;99.90;;;;;;5121785;28;20288;-66
2021/11/02 17:18:52;;;;;;;1999.90;999.90;;;16.70;99.90;;;;;;5115999;28;20526;-69
2021/11/02 17:21:21;;;;;;;1999.90;999.90;;;16.60;99.90;;;;;;5115977;28;20224;-71
2021/11/02 17:23:50;;;;;;;1999.90;999.90;;;16.60;99.90;;;;;;5115873;28;20187;-71
2021/11/02 17:26:19;;;;;;;1999.90;999.90;;;16.50;99.90;;;;;;5115952;28;20470;-70
2021/11/02 17:28:48;;;;;;;1999.90;999.90;;;16.50;99.90;;;;;;5115793;28;20731;-67
2021/11/02 17:31:21;;;;;;;1999.90;999.90;;;16.40;99.90;;;;;;5115851;28;20163;-68
2021/11/02 17:33:48;;;;;;;1999.90;999.90;;;16.30;99.90;;;;;;5115701;28;20238;-68
2021/11/02 17:36:17;;;;;;;1999.90;999.90;;;16.20;99.90;;;;;;5115663;28;20238;-67
2021/11/02 17:38:46;;;;;;;1999.90;999.90;;;16.20;99.90;;;;;;5115817;28;20237;-70
2021/11/02 17:41:14;;;;;;;1999.90;999.90;;;16.20;99.90;;;;;;5115742;28;20217;-70
2021/11/02 17:43:43;;;;;;;1999.90;999.90;;;16.20;99.90;;;;;;5115708;28;20187;-70
2021/11/02 17:46:12;;;;;;;1999.90;999.90;;;16.20;99.90;;;;;;5115461;28;20629;-70
2021/11/02 17:48:39;;;;;;;1999.90;999.90;;;16.20;99.90;;;;;;5115136;28;20617;-67
2021/11/02 17:51:06;;;;;;;1999.90;999.90;;;16.20;99.90;;;;;;5115367;28;20175;-66
2021/11/02 17:53:41;;;;;;;1999.90;999.90;;;16.10;99.90;;;;;;5115337;28;20189;-70
2021/11/02 17:56:11;;;;;;;1999.90;999.90;;;16.00;99.90;;;;;;5115226;28;20175;-68